METAR Data
IDs: Format: Raw Decoded Include TAF

Data at: 1338 UTC 14 Dec 2019

METAR for:KEOK (Keokuk Muni, IA, US)
Text:KEOK 141335Z AUTO 35013KT 10SM OVC013 M02/M04 A2984 RMK AO2
Temperature: -2.0°C ( 28°F)
Dewpoint: -4.0°C ( 25°F) [RH = 86%]
Pressure (altimeter):29.84 inches Hg (1010.6 mb)
Winds:from the N (350 degrees) at 15 MPH (13 knots; 6.7 m/s)
Visibility:10 or more sm (16+ km)
Ceiling:1300 feet AGL
Clouds: overcast cloud deck at 1300 feet AGL
QC Flag:automated observation with no human augmentation